createdAt,value
2019-05-11T00:00:40.686Z,4.42
2019-05-11T00:05:00.997Z,5.15
2019-05-11T00:09:21.143Z,4.25
2019-05-11T00:13:41.692Z,5.30
2019-05-11T00:18:02.468Z,5.15
2019-05-11T00:22:23.483Z,5.33
2019-05-11T00:26:44.295Z,5.03
2019-05-11T00:31:04.954Z,5.33
2019-05-11T00:35:25.613Z,5.25
2019-05-11T00:39:46.343Z,5.62
2019-05-11T00:44:06.570Z,5.75
2019-05-11T00:48:27.301Z,6.55
2019-05-11T00:52:48.293Z,6.50
2019-05-11T00:57:09.090Z,5.80
2019-05-11T01:01:29.641Z,6.28
2019-05-11T01:05:50.014Z,6.37
2019-05-11T01:10:23.063Z,6.08
2019-05-11T01:14:33.336Z,6.95
2019-05-11T01:18:53.745Z,6.72
2019-05-11T01:23:14.780Z,6.62
2019-05-11T01:27:35.349Z,7.15
2019-05-11T01:31:56.178Z,6.65
2019-05-11T01:36:16.974Z,7.25
2019-05-11T01:40:37.778Z,7.35
2019-05-11T01:44:57.995Z,5.80
2019-05-11T01:49:18.952Z,5.70
2019-05-11T01:53:39.330Z,6.58
2019-05-11T01:57:59.886Z,6.42
2019-05-11T02:02:20.543Z,7.30
2019-05-11T02:06:41.371Z,6.75
2019-05-11T02:11:14.978Z,6.95
2019-05-11T02:15:24.461Z,6.37
2019-05-11T02:19:45.310Z,8.20
2019-05-11T02:24:05.805Z,6.80
2019-05-11T02:28:26.755Z,7.42
2019-05-11T02:32:47.646Z,8.15
2019-05-11T02:37:08.246Z,8.53
2019-05-11T02:41:36.183Z,7.97
2019-05-11T02:45:51.280Z,7.90
2019-05-11T02:50:11.944Z,9.65
2019-05-11T02:54:32.747Z,6.75
2019-05-11T02:58:52.984Z,8.83
2019-05-11T03:03:14.040Z,7.30
2019-05-11T03:07:34.680Z,7.30
2019-05-11T03:11:56.546Z,7.75
2019-05-11T03:16:17.027Z,7.37
2019-05-11T03:20:37.916Z,8.43
2019-05-11T03:25:02.878Z,7.45
2019-05-11T03:29:23.513Z,6.97
2019-05-11T03:33:44.228Z,7.33
2019-05-11T03:38:05.386Z,6.70
2019-05-11T03:42:25.705Z,6.40
2019-05-11T03:46:46.830Z,6.80
2019-05-11T03:51:08.280Z,5.80
2019-05-11T03:55:29.073Z,7.65
2019-05-11T03:59:49.382Z,6.35
2019-05-11T04:04:10.490Z,6.75
2019-05-11T04:08:30.810Z,6.40
2019-05-11T04:12:51.914Z,6.47
2019-05-11T04:17:12.881Z,5.33
2019-05-11T04:21:33.378Z,6.40
2019-05-11T04:25:54.117Z,5.55
2019-05-11T04:30:14.904Z,4.97
2019-05-11T04:34:35.340Z,4.97
2019-05-11T04:38:55.380Z,6.03
2019-05-11T04:43:15.528Z,5.53
2019-05-11T04:47:36.569Z,5.25
2019-05-11T04:51:57.264Z,4.67
2019-05-11T04:56:18.023Z,5.97
2019-05-11T05:00:38.794Z,6.20
2019-05-11T05:04:58.923Z,6.03
2019-05-11T05:09:20.303Z,6.62
2019-05-11T05:13:45.738Z,7.47
2019-05-11T05:18:06.769Z,6.87
2019-05-11T05:22:28.053Z,6.00
2019-05-11T05:26:48.997Z,7.35
2019-05-11T05:31:10.054Z,9.13
2019-05-11T05:35:30.852Z,7.10
2019-05-11T05:39:51.625Z,6.78
2019-05-11T05:44:12.417Z,8.25
2019-05-11T05:48:32.640Z,6.50
2019-05-11T05:52:53.157Z,7.37
2019-05-11T05:57:13.680Z,7.25
2019-05-11T06:01:34.383Z,7.67
2019-05-11T06:05:54.903Z,6.25
2019-05-11T06:10:15.624Z,6.40
2019-05-11T06:14:36.068Z,7.17
2019-05-11T06:18:56.743Z,6.50
2019-05-11T06:23:17.315Z,6.78
2019-05-11T06:27:37.634Z,6.10
2019-05-11T06:31:59.589Z,5.78
2019-05-11T06:36:20.561Z,5.62
2019-05-11T06:40:41.135Z,5.40
2019-05-11T06:45:01.831Z,4.92
2019-05-11T06:49:22.368Z,5.30
2019-05-11T06:53:42.860Z,4.62
2019-05-11T06:58:03.016Z,4.75
2019-05-11T07:02:23.133Z,5.85
2019-05-11T07:06:43.902Z,4.70
2019-05-11T07:11:04.240Z,5.62
2019-05-11T07:15:24.718Z,5.20
2019-05-11T07:19:49.306Z,3.67
2019-05-11T07:24:10.307Z,4.30
2019-05-11T07:28:31.008Z,4.90
2019-05-11T07:32:51.103Z,5.00
2019-05-11T07:37:12.017Z,4.40
2019-05-11T07:41:32.167Z,5.30
2019-05-11T07:45:52.869Z,5.35
2019-05-11T07:50:14.124Z,4.80
2019-05-11T07:54:34.852Z,4.25
2019-05-11T07:58:57.873Z,4.42
2019-05-11T08:03:18.827Z,6.08
2019-05-11T08:07:39.219Z,4.97
2019-05-11T08:11:59.685Z,4.62
2019-05-11T08:16:20.208Z,4.53
2019-05-11T08:20:41.245Z,4.65
2019-05-11T08:25:01.871Z,5.83
2019-05-11T08:29:23.188Z,5.20
2019-05-11T08:33:44.430Z,4.70
2019-05-11T08:38:06.054Z,6.75
2019-05-11T08:42:28.918Z,4.22
2019-05-11T08:46:49.983Z,4.85
2019-05-11T08:51:10.619Z,5.33
2019-05-11T08:55:31.284Z,4.62
2019-05-11T08:59:52.082Z,4.90
2019-05-11T09:04:12.275Z,6.85
2019-05-11T09:08:32.946Z,6.30
2019-05-11T09:12:53.114Z,7.40
2019-05-11T09:17:13.738Z,7.03
2019-05-11T09:21:34.387Z,8.18
2019-05-11T09:25:58.173Z,10.38
2019-05-11T09:30:18.646Z,10.82
2019-05-11T09:34:40.074Z,9.13
2019-05-11T09:39:00.945Z,11.25
2019-05-11T09:43:22.877Z,10.72
2019-05-11T09:47:43.138Z,11.12
2019-05-11T09:52:04.492Z,10.65
2019-05-11T09:56:25.610Z,12.18
2019-05-11T10:00:47.935Z,12.68
2019-05-11T10:05:08.655Z,16.37
2019-05-11T10:09:29.098Z,16.10
2019-05-11T10:13:49.956Z,19.27
2019-05-11T10:18:10.340Z,19.05
2019-05-11T10:22:31.865Z,21.30
2019-05-11T10:26:52.408Z,22.98
2019-05-11T10:31:13.341Z,24.00
2019-05-11T10:35:34.516Z,22.95
2019-05-11T10:39:57.654Z,23.65
2019-05-11T10:44:18.793Z,19.02
2019-05-11T10:48:39.549Z,21.17
2019-05-11T10:53:00.213Z,20.52
2019-05-11T10:57:20.562Z,20.00
2019-05-11T11:01:41.136Z,18.60
2019-05-11T11:06:01.800Z,17.23
2019-05-11T11:10:22.427Z,16.57
2019-05-11T11:14:43.113Z,15.95
2019-05-11T11:19:04.761Z,16.10
2019-05-11T11:23:25.500Z,16.37
2019-05-11T11:27:48.415Z,12.73
2019-05-11T11:32:08.807Z,13.50
2019-05-11T11:36:29.516Z,15.23
2019-05-11T11:40:50.844Z,13.53
2019-05-11T11:45:12.756Z,13.30
2019-05-11T11:49:33.632Z,12.35
2019-05-11T11:53:54.583Z,11.25
2019-05-11T11:58:15.377Z,11.38
2019-05-11T12:02:38.590Z,11.55
2019-05-11T12:06:58.853Z,11.45
2019-05-11T12:11:20.178Z,11.45
2019-05-11T12:15:40.644Z,12.23
2019-05-11T12:20:01.255Z,12.33
2019-05-11T12:24:21.729Z,11.90
2019-05-11T12:28:42.216Z,9.73
2019-05-11T12:33:02.577Z,9.48
2019-05-11T12:37:23.420Z,8.50
2019-05-11T12:41:43.969Z,7.80
2019-05-11T12:46:04.204Z,8.98
2019-05-11T12:50:25.099Z,9.18
2019-05-11T12:54:45.190Z,9.93
2019-05-11T12:59:08.014Z,9.93
2019-05-11T13:03:28.198Z,10.72
2019-05-11T13:07:48.578Z,9.63
2019-05-11T13:12:11.750Z,10.03
2019-05-11T13:16:32.600Z,10.58
2019-05-11T13:20:53.289Z,13.70
2019-05-11T13:25:15.083Z,16.00
2019-05-11T13:29:37.777Z,15.28
2019-05-11T13:33:58.655Z,13.05
2019-05-11T13:38:19.774Z,14.87
2019-05-11T13:42:41.408Z,15.55
2019-05-11T13:47:13.433Z,13.43
2019-05-11T13:51:34.129Z,12.78
2019-05-11T13:55:55.074Z,12.73
2019-05-11T14:00:17.599Z,11.93
2019-05-11T14:04:38.658Z,10.10
2019-05-11T14:08:59.767Z,9.20
2019-05-11T14:13:19.951Z,8.55
2019-05-11T14:17:40.418Z,7.87
2019-05-11T14:22:01.252Z,5.37
2019-05-11T14:26:24.532Z,5.45
2019-05-11T14:30:45.373Z,6.17
2019-05-11T14:35:11.333Z,6.28
2019-05-11T14:39:28.373Z,5.60
2019-05-11T14:43:49.131Z,5.58
2019-05-11T14:48:22.930Z,5.67
2019-05-11T14:52:39.189Z,4.97
2019-05-11T14:56:59.821Z,5.22
2019-05-11T15:01:20.317Z,5.00
2019-05-11T15:05:41.616Z,4.83
2019-05-11T15:10:02.507Z,5.55
2019-05-11T15:14:23.224Z,4.90
2019-05-11T15:18:43.573Z,4.78
2019-05-11T15:23:04.123Z,5.00
2019-05-11T15:27:24.931Z,4.97
2019-05-11T15:31:45.827Z,5.70
2019-05-11T15:36:07.619Z,4.65
2019-05-11T15:40:28.534Z,6.22
2019-05-11T15:44:49.114Z,4.75
2019-05-11T15:49:09.575Z,4.95
2019-05-11T15:53:30.254Z,4.62
2019-05-11T15:57:52.119Z,4.33
2019-05-11T16:02:12.596Z,5.10
2019-05-11T16:06:36.035Z,5.53
2019-05-11T16:10:57.858Z,4.35
2019-05-11T16:15:19.409Z,4.97
2019-05-11T16:19:41.092Z,5.10
2019-05-11T16:24:02.389Z,4.70
2019-05-11T16:28:23.576Z,4.67
2019-05-11T16:32:44.335Z,4.42
2019-05-11T16:37:05.544Z,5.20
2019-05-11T16:41:29.194Z,5.33
2019-05-11T16:45:51.111Z,4.75
2019-05-11T16:50:12.312Z,5.08
2019-05-11T16:54:32.780Z,5.03
2019-05-11T16:58:54.865Z,5.28
2019-05-11T17:03:16.295Z,4.30
2019-05-11T17:07:37.673Z,4.95
2019-05-11T17:11:58.389Z,4.12
2019-05-11T17:16:19.510Z,4.12
2019-05-11T17:20:40.158Z,4.62
2019-05-11T17:25:00.439Z,4.47
2019-05-11T17:29:21.924Z,4.25
2019-05-11T17:33:42.644Z,4.53
2019-05-11T17:38:03.238Z,5.83
2019-05-11T17:42:23.569Z,4.42
2019-05-11T17:46:44.403Z,4.55
2019-05-11T17:55:19.008Z,4.50
2019-05-11T17:59:40.417Z,4.60
2019-05-11T18:04:01.377Z,4.55
2019-05-11T18:08:22.432Z,4.70
2019-05-11T18:12:42.932Z,4.72
2019-05-11T18:17:04.200Z,4.80
2019-05-11T18:21:24.452Z,5.03
2019-05-11T18:25:48.032Z,4.50
2019-05-11T18:30:09.048Z,5.33
2019-05-11T18:34:30.043Z,4.72
2019-05-11T18:38:51.218Z,4.90
2019-05-11T18:43:11.827Z,5.30
2019-05-11T18:47:31.976Z,5.22
2019-05-11T18:51:52.533Z,4.53
2019-05-11T18:56:13.282Z,5.62
2019-05-11T19:00:34.983Z,4.67
2019-05-11T19:04:58.032Z,4.28
2019-05-11T19:09:18.554Z,4.92
2019-05-11T19:13:39.278Z,4.37
2019-05-11T19:17:59.803Z,4.20
2019-05-11T19:22:21.277Z,5.58
2019-05-11T19:26:42.935Z,5.87
2019-05-11T19:31:03.840Z,5.65
2019-05-11T19:35:28.104Z,5.15
2019-05-11T19:39:50.792Z,3.17
2019-05-11T19:44:12.014Z,2.98
2019-05-11T19:48:32.294Z,3.02
2019-05-11T19:52:53.332Z,1.85
2019-05-11T19:57:14.296Z,1.55
2019-05-11T20:01:35.187Z,1.77
2019-05-11T20:05:58.071Z,1.62
2019-05-11T20:10:19.293Z,2.22
2019-05-11T20:14:40.069Z,3.17
2019-05-11T20:19:00.837Z,1.87
2019-05-11T20:23:21.724Z,1.77
2019-05-11T20:27:42.547Z,1.40
2019-05-11T20:32:03.722Z,1.30
2019-05-11T20:36:26.466Z,1.40
2019-05-11T20:40:48.419Z,1.32
2019-05-11T20:45:10.563Z,1.60
2019-05-11T20:49:31.104Z,1.67
2019-05-11T20:53:51.651Z,1.15
2019-05-11T20:58:13.179Z,2.17
2019-05-11T21:02:34.438Z,1.20
2019-05-11T21:06:54.763Z,1.10
2019-05-11T21:11:17.920Z,1.00
2019-05-11T21:15:38.696Z,1.45
2019-05-11T21:20:00.500Z,1.77
2019-05-11T21:24:21.963Z,1.50
2019-05-11T21:28:42.675Z,1.05
2019-05-11T21:33:04.780Z,1.40
2019-05-11T21:37:27.633Z,1.50
2019-05-11T21:41:48.190Z,1.50
2019-05-11T21:46:08.980Z,1.70
2019-05-11T21:50:29.813Z,1.60
2019-05-11T21:54:50.052Z,2.08
2019-05-11T21:59:10.649Z,2.83
2019-05-11T22:03:30.957Z,1.52
2019-05-11T22:07:52.342Z,2.00
2019-05-11T22:12:13.391Z,1.52
2019-05-11T22:16:33.656Z,1.17
2019-05-11T22:20:54.309Z,1.10
2019-05-11T22:25:15.338Z,0.90
2019-05-11T22:29:37.886Z,1.30
2019-05-11T22:33:58.433Z,2.35
2019-05-11T22:38:20.056Z,2.72
2019-05-11T22:42:40.800Z,1.30
2019-05-11T22:47:01.781Z,1.52
2019-05-11T22:51:23.909Z,1.42
2019-05-11T22:55:44.519Z,1.57
2019-05-11T23:00:08.005Z,1.62
2019-05-11T23:04:28.779Z,1.50
2019-05-11T23:08:53.871Z,1.02
2019-05-11T23:13:11.759Z,1.20
2019-05-11T23:17:32.847Z,2.25
2019-05-11T23:21:53.476Z,1.30
2019-05-11T23:26:13.806Z,1.55
2019-05-11T23:30:35.266Z,1.40
2019-05-11T23:34:55.885Z,1.47
2019-05-11T23:39:17.859Z,1.40
2019-05-11T23:43:38.718Z,1.57
2019-05-11T23:47:59.228Z,1.40
2019-05-11T23:52:20.382Z,1.50
2019-05-11T23:56:40.876Z,1.40
